Time;durP1;ratioP1;P1;durP2;ratioP2;P2;SDS_P1;SDS_P2;PMS_P1;PMS_P2;Temp;Humidity;BMP_temperature;BMP_pressure;BME280_temperature;BME280_humidity;BME280_pressure;Samples;Min_cycle;Max_cycle;Signal;HPM_P1;HPM_P2
2021/01/01 00:00:29;;;;;;;18.23;7.80;;;7.20;81.30;;;;;;5011844;28;20029;-51
2021/01/01 00:02:55;;;;;;;12.70;6.13;;;7.20;81.20;;;;;;4997755;28;20033;-51
2021/01/01 00:05:20;;;;;;;16.38;7.90;;;7.20;81.20;;;;;;5000256;28;20022;-51
2021/01/01 00:07:46;;;;;;;14.25;6.93;;;7.20;81.30;;;;;;5016164;28;20869;-51
2021/01/01 00:10:15;;;;;;;12.52;6.78;;;7.20;81.30;;;;;;5016249;28;20030;-51
2021/01/01 00:12:41;;;;;;;13.85;7.35;;;7.20;81.40;;;;;;5015504;28;20443;-51
2021/01/01 00:15:07;;;;;;;15.05;6.78;;;7.20;81.40;;;;;;5015765;28;20030;-51
2021/01/01 00:17:32;;;;;;;14.50;7.18;;;7.20;81.40;;;;;;5015963;28;20034;-51
2021/01/01 00:19:58;;;;;;;16.40;6.88;;;7.20;81.40;;;;;;5015722;28;20038;-51
2021/01/01 00:22:24;;;;;;;16.98;7.35;;;7.20;81.40;;;;;;5015659;28;20037;-51
2021/01/01 00:24:50;;;;;;;15.27;8.48;;;7.20;81.50;;;;;;5016001;28;20041;-51
2021/01/01 00:27:16;;;;;;;15.32;7.85;;;7.20;81.40;;;;;;5015872;28;20026;-51
2021/01/01 00:29:42;;;;;;;12.88;6.75;;;7.20;81.60;;;;;;5004089;28;20456;-51
2021/01/01 00:32:08;;;;;;;8.43;5.63;;;7.20;81.60;;;;;;4996163;28;20073;-51
2021/01/01 00:34:34;;;;;;;12.90;5.57;;;7.20;81.60;;;;;;4996273;28;20065;-51
2021/01/01 00:37:00;;;;;;;14.38;5.80;;;7.20;81.60;;;;;;4996045;28;20078;-52
2021/01/01 00:39:26;;;;;;;12.27;6.43;;;7.20;81.60;;;;;;4995948;28;20034;-51
2021/01/01 00:41:52;;;;;;;12.63;6.55;;;7.20;81.60;;;;;;4998267;28;20341;-51
2021/01/01 00:44:18;;;;;;;12.98;7.10;;;7.20;81.70;;;;;;5014553;28;20482;-51
2021/01/01 00:46:43;;;;;;;17.20;7.28;;;7.20;81.70;;;;;;5015732;28;20026;-51
2021/01/01 00:49:09;;;;;;;15.32;7.18;;;7.20;81.70;;;;;;5015331;28;20463;-51
2021/01/01 00:51:35;;;;;;;17.05;6.47;;;7.20;81.70;;;;;;5015201;28;20030;-51
2021/01/01 00:54:02;;;;;;;14.50;7.00;;;7.20;81.70;;;;;;5015382;28;20117;-51
2021/01/01 00:56:29;;;;;;;13.68;7.18;;;7.20;81.70;;;;;;5014532;28;20018;-51
2021/01/01 00:58:56;;;;;;;18.13;8.23;;;7.20;81.70;;;;;;5015048;28;20042;-51
2021/01/01 01:01:24;;;;;;;17.55;7.28;;;7.20;81.70;;;;;;5014949;28;20466;-51
2021/01/01 01:03:55;;;;;;;16.35;7.55;;;7.20;81.70;;;;;;5015266;28;20121;-51
2021/01/01 01:06:22;;;;;;;15.40;7.35;;;7.20;81.80;;;;;;5015039;28;20454;-52
2021/01/01 01:08:48;;;;;;;18.05;7.40;;;7.20;81.80;;;;;;5014399;28;20076;-51
2021/01/01 01:11:14;;;;;;;11.68;6.65;;;7.20;81.90;;;;;;4999514;28;20027;-51
2021/01/01 01:13:40;;;;;;;17.27;7.22;;;7.20;81.90;;;;;;4994767;28;20052;-51
2021/01/01 01:16:06;;;;;;;13.40;6.43;;;7.20;81.90;;;;;;4995581;28;20033;-52
2021/01/01 01:18:32;;;;;;;17.10;7.00;;;7.20;81.90;;;;;;4995414;28;20038;-52
2021/01/01 01:20:58;;;;;;;12.38;6.68;;;7.20;81.90;;;;;;4995438;28;20033;-51
2021/01/01 01:23:25;;;;;;;16.23;7.68;;;7.20;82.60;;;;;;5003278;28;20030;-51
2021/01/01 01:25:51;;;;;;;18.65;8.65;;;7.20;82.00;;;;;;5014879;28;20030;-51
2021/01/01 01:28:17;;;;;;;13.00;6.72;;;7.20;82.00;;;;;;5014308;28;20391;-51
2021/01/01 01:30:42;;;;;;;10.85;6.43;;;7.20;82.00;;;;;;5014952;28;20026;-51
2021/01/01 01:33:09;;;;;;;17.02;7.18;;;7.20;82.00;;;;;;5014429;28;20033;-51
2021/01/01 01:35:35;;;;;;;17.40;7.32;;;7.20;82.00;;;;;;5014733;28;20022;-51
2021/01/01 01:38:01;;;;;;;22.85;7.85;;;7.20;82.00;;;;;;5003115;28;20042;-51
2021/01/01 01:40:27;;;;;;;18.52;7.85;;;7.20;82.10;;;;;;5009920;28;20168;-51
2021/01/01 01:42:53;;;;;;;12.75;6.80;;;7.20;82.10;;;;;;5013764;28;20068;-52
2021/01/01 01:45:19;;;;;;;12.23;5.70;;;7.20;82.10;;;;;;5014443;28;20462;-51
2021/01/01 01:47:46;;;;;;;10.60;6.43;;;7.20;82.10;;;;;;5014647;28;20053;-51
2021/01/01 01:50:13;;;;;;;11.25;6.60;;;7.20;82.20;;;;;;5014249;28;20033;-51
2021/01/01 01:52:40;;;;;;;11.60;6.22;;;7.20;82.20;;;;;;5013360;28;20432;-52
2021/01/01 01:55:08;;;;;;;12.05;6.85;;;7.20;82.20;;;;;;5005759;28;20027;-51
2021/01/01 01:57:34;;;;;;;12.23;6.07;;;7.20;82.20;;;;;;4994731;28;20031;-51
2021/01/01 02:02:53;;;;;;;12.02;6.88;;;7.20;82.30;;;;;;5016743;28;20037;-51
2021/01/01 02:05:18;;;;;;;12.45;6.90;;;7.20;82.30;;;;;;5012446;28;20447;-52
2021/01/01 02:07:45;;;;;;;14.52;7.38;;;7.20;82.30;;;;;;5013574;28;20145;-51
2021/01/01 02:10:11;;;;;;;15.32;7.00;;;7.10;82.30;;;;;;5011280;28;20040;-52
2021/01/01 02:12:37;;;;;;;15.45;6.70;;;7.20;82.40;;;;;;5003357;28;20456;-51
2021/01/01 02:15:04;;;;;;;14.57;7.25;;;7.20;82.40;;;;;;4994141;28;20037;-51
2021/01/01 02:17:30;;;;;;;13.00;6.57;;;7.20;82.40;;;;;;4994349;28;20374;-51
2021/01/01 02:20:10;;;;;;;15.77;7.00;;;7.10;82.40;;;;;;5005057;28;20450;-51
2021/01/01 02:22:39;;;;;;;13.40;6.70;;;7.20;82.50;;;;;;5013630;28;20574;-51
2021/01/01 02:25:10;;;;;;;11.93;7.10;;;7.20;82.50;;;;;;5013179;28;20050;-51
2021/01/01 02:27:36;;;;;;;19.85;9.23;;;7.20;83.30;;;;;;5013821;28;20348;-51
2021/01/01 02:30:03;;;;;;;17.98;7.38;;;7.20;82.50;;;;;;5013482;28;20116;-52
2021/01/01 02:32:28;;;;;;;14.82;6.82;;;7.20;82.60;;;;;;5011332;28;20057;-51
2021/01/01 02:34:54;;;;;;;10.85;6.53;;;7.20;82.60;;;;;;4993622;28;20037;-51
2021/01/01 02:37:20;;;;;;;12.02;6.43;;;7.20;82.60;;;;;;4993951;28;20412;-52
2021/01/01 02:39:45;;;;;;;14.43;7.63;;;7.10;82.50;;;;;;4993814;28;20088;-51
2021/01/01 02:42:14;;;;;;;16.50;7.47;;;7.20;82.60;;;;;;5002573;28;20092;-51
2021/01/01 02:44:39;;;;;;;16.75;7.20;;;7.20;82.60;;;;;;5013544;28;20030;-52
2021/01/01 02:47:05;;;;;;;13.55;7.25;;;7.20;82.70;;;;;;5012883;28;20125;-51
2021/01/01 02:49:31;;;;;;;12.88;6.43;;;7.20;82.70;;;;;;5013163;28;20348;-51
2021/01/01 02:51:57;;;;;;;13.40;6.70;;;7.20;82.70;;;;;;5013178;28;20026;-51
2021/01/01 02:54:23;;;;;;;12.02;6.10;;;7.10;82.70;;;;;;5013831;28;20120;-52
2021/01/01 02:56:49;;;;;;;15.55;6.78;;;7.20;82.80;;;;;;5013626;28;20104;-51
2021/01/01 02:59:14;;;;;;;11.30;6.55;;;7.20;82.80;;;;;;5013230;28;20038;-51
2021/01/01 03:01:40;;;;;;;11.48;5.88;;;7.20;82.80;;;;;;5012365;28;20021;-51
2021/01/01 03:04:06;;;;;;;14.02;5.90;;;7.20;82.80;;;;;;5013027;28;20032;-51
2021/01/01 03:06:32;;;;;;;13.02;5.60;;;7.20;82.80;;;;;;5013509;28;20017;-51
2021/01/01 03:08:58;;;;;;;16.48;5.93;;;7.20;82.80;;;;;;5013435;28;20431;-51
2021/01/01 03:11:23;;;;;;;16.90;7.15;;;7.20;82.90;;;;;;5007134;28;20721;-51
2021/01/01 03:13:49;;;;;;;9.50;5.85;;;7.20;82.80;;;;;;5012070;28;20040;-51
2021/01/01 03:16:15;;;;;;;14.05;7.03;;;7.20;82.80;;;;;;5013343;28;20040;-51
2021/01/01 03:18:41;;;;;;;12.50;6.90;;;7.20;82.80;;;;;;5012938;28;20029;-51
2021/01/01 03:21:06;;;;;;;16.08;8.52;;;7.20;82.90;;;;;;5013730;28;20122;-52
2021/01/01 03:23:32;;;;;;;15.50;8.50;;;7.20;82.80;;;;;;5012317;28;20478;-51
2021/01/01 03:25:58;;;;;;;13.98;6.28;;;7.20;82.80;;;;;;4992438;28;20035;-51
2021/01/01 03:28:23;;;;;;;14.25;8.30;;;7.20;82.90;;;;;;5006977;28;20089;-51
2021/01/01 03:30:49;;;;;;;11.30;6.30;;;7.20;82.90;;;;;;5013123;28;20026;-51
2021/01/01 03:33:15;;;;;;;11.93;6.15;;;7.20;82.90;;;;;;5010506;28;20038;-51
2021/01/01 03:35:40;;;;;;;12.73;6.63;;;7.20;82.90;;;;;;5012336;28;20521;-51
2021/01/01 03:38:06;;;;;;;17.63;7.53;;;7.20;83.00;;;;;;5015207;28;20466;-51
2021/01/01 03:40:32;;;;;;;14.73;7.55;;;7.20;83.00;;;;;;5016515;28;20087;-51
2021/01/01 03:42:58;;;;;;;21.13;8.30;;;7.20;82.90;;;;;;4998537;28;20054;-51
2021/01/01 03:45:24;;;;;;;14.43;6.95;;;7.20;82.90;;;;;;5009789;28;20026;-51
2021/01/01 03:47:50;;;;;;;14.07;7.82;;;7.20;83.00;;;;;;5015700;28;20436;-51
2021/01/01 03:50:15;;;;;;;16.52;8.25;;;7.10;82.90;;;;;;5015984;28;20073;-51
2021/01/01 03:52:41;;;;;;;14.02;7.18;;;7.20;83.00;;;;;;5014530;28;20382;-51
2021/01/01 03:55:07;;;;;;;16.02;8.20;;;7.20;83.00;;;;;;5007877;28;20034;-51
2021/01/01 03:57:33;;;;;;;13.65;8.15;;;7.20;83.00;;;;;;5015806;28;20030;-51
2021/01/01 03:59:59;;;;;;;18.85;7.95;;;7.20;83.10;;;;;;5016367;28;20459;-51
2021/01/01 04:02:24;;;;;;;19.85;8.60;;;7.20;83.00;;;;;;5016120;28;20033;-51
2021/01/01 04:04:50;;;;;;;18.42;7.68;;;7.20;83.10;;;;;;5006665;28;20026;-52
2021/01/01 04:07:16;;;;;;;14.93;8.05;;;7.20;83.10;;;;;;5015448;28;20030;-51
2021/01/01 04:09:42;;;;;;;17.52;7.85;;;7.20;83.10;;;;;;5016062;28;20499;-52
2021/01/01 04:12:08;;;;;;;16.58;7.65;;;7.20;83.20;;;;;;5015868;28;20033;-51
2021/01/01 04:14:34;;;;;;;18.35;7.57;;;7.20;83.20;;;;;;5015690;28;20072;-51
2021/01/01 04:17:00;;;;;;;18.40;7.30;;;7.20;83.20;;;;;;5016215;28;20041;-51
2021/01/01 04:19:25;;;;;;;14.70;8.27;;;7.20;83.20;;;;;;5015714;28;20044;-51
2021/01/01 04:21:51;;;;;;;15.55;8.35;;;7.20;83.20;;;;;;5015807;28;20452;-51
2021/01/01 04:24:18;;;;;;;14.30;7.47;;;7.20;83.20;;;;;;5010875;28;20033;-52
2021/01/01 04:26:44;;;;;;;17.00;8.02;;;7.20;83.20;;;;;;4996434;28;20062;-51
2021/01/01 04:29:11;;;;;;;13.73;7.53;;;7.20;83.20;;;;;;4996334;28;20039;-52
2021/01/01 04:31:37;;;;;;;14.07;7.18;;;7.20;83.20;;;;;;4995651;28;20023;-51
2021/01/01 04:34:04;;;;;;;19.25;7.93;;;7.20;83.30;;;;;;5012801;28;20030;-51
2021/01/01 04:36:30;;;;;;;12.68;6.78;;;7.20;83.30;;;;;;4996037;28;20081;-51
2021/01/01 04:38:56;;;;;;;17.42;7.65;;;7.20;83.30;;;;;;4995945;28;20042;-51
2021/01/01 04:41:22;;;;;;;13.90;6.72;;;7.20;83.30;;;;;;4998493;28;20317;-51
2021/01/01 04:43:49;;;;;;;13.90;7.47;;;7.20;83.30;;;;;;5014969;28;20048;-51
2021/01/01 04:46:15;;;;;;;13.55;7.18;;;7.20;83.30;;;;;;5016084;28;20034;-52
2021/01/01 04:48:45;;;;;;;10.68;6.68;;;7.20;83.30;;;;;;5014866;28;20022;-51
2021/01/01 04:51:11;;;;;;;14.40;6.80;;;7.20;83.30;;;;;;5015725;28;20343;-51
2021/01/01 04:53:38;;;;;;;12.52;6.40;;;7.20;83.30;;;;;;5015241;28;20084;-51
2021/01/01 04:56:08;;;;;;;12.25;6.45;;;7.20;83.30;;;;;;5015137;28;20021;-51
2021/01/01 04:58:35;;;;;;;14.60;7.47;;;7.20;83.40;;;;;;5014256;28;20418;-51
2021/01/01 05:01:01;;;;;;;12.98;6.72;;;7.20;83.40;;;;;;5010609;28;20037;-52
2021/01/01 05:03:27;;;;;;;18.95;8.18;;;7.20;83.40;;;;;;5014695;28;20068;-52
2021/01/01 05:05:53;;;;;;;13.98;6.85;;;7.20;83.40;;;;;;5014531;28;20034;-52
2021/01/01 05:08:20;;;;;;;13.13;7.15;;;7.20;83.40;;;;;;5015115;28;20037;-51
2021/01/01 05:10:47;;;;;;;12.55;7.05;;;7.20;83.40;;;;;;5014833;28;20109;-51
2021/01/01 05:13:20;;;;;;;11.88;6.75;;;7.20;83.40;;;;;;5014704;28;20030;-51
2021/01/01 05:15:48;;;;;;;11.15;6.00;;;7.20;83.40;;;;;;5014513;28;20026;-51
2021/01/01 05:18:26;;;;;;;9.90;5.45;;;7.20;83.40;;;;;;5014823;28;20439;-51
2021/01/01 05:20:56;;;;;;;14.88;6.63;;;7.30;83.40;;;;;;5015107;28;20030;-52
2021/01/01 05:23:26;;;;;;;;;;;7.20;83.30;;;;;;5012522;28;20037;-51
2021/01/01 05:26:08;;;;;;;13.67;6.10;;;7.30;83.40;;;;;;5014562;28;20335;-51
2021/01/01 05:29:02;;;;;;;12.18;6.18;;;7.20;83.30;;;;;;5013781;28;20277;-51
2021/01/01 05:31:30;;;;;;;13.07;6.65;;;7.20;83.40;;;;;;5011673;28;20116;-51
2021/01/01 05:34:10;;;;;;;9.45;5.80;;;7.20;83.40;;;;;;5014175;28;20030;-52
2021/01/01 05:36:46;;;;;;;18.00;8.48;;;7.20;83.50;;;;;;4995130;28;20023;-52
2021/01/01 05:39:17;;;;;;;14.23;7.30;;;7.20;83.50;;;;;;4994498;28;20046;-51
2021/01/01 05:41:45;;;;;;;15.18;8.23;;;7.20;83.50;;;;;;5000260;28;20018;-52
2021/01/01 05:44:17;;;;;;;15.75;7.13;;;7.20;83.50;;;;;;5014055;28;20022;-52
2021/01/01 05:47:06;;;;;;;15.00;8.00;;;7.20;83.40;;;;;;5014543;28;20022;-52
2021/01/01 05:49:36;;;;;;;14.57;7.22;;;7.20;83.40;;;;;;5012939;28;20018;-52
2021/01/01 05:52:17;;;;;;;12.13;7.00;;;7.20;83.40;;;;;;5014136;28;20134;-51
2021/01/01 05:54:45;;;;;;;13.82;6.80;;;7.20;83.40;;;;;;5013414;28;20509;-52
2021/01/01 05:57:12;;;;;;;20.25;7.85;;;7.30;83.50;;;;;;5014079;28;20037;-52
2021/01/01 05:59:45;;;;;;;18.85;8.20;;;7.20;83.40;;;;;;5002664;28;20038;-52
2021/01/01 06:02:12;;;;;;;16.67;7.38;;;7.20;83.40;;;;;;5012380;28;20061;-52
2021/01/01 06:04:38;;;;;;;17.60;7.80;;;7.30;83.50;;;;;;5008722;28;20031;-52
2021/01/01 06:07:09;;;;;;;17.02;8.35;;;7.20;83.40;;;;;;5012044;28;20061;-51
2021/01/01 06:09:36;;;;;;;14.85;8.32;;;7.30;83.50;;;;;;5001295;28;20455;-52
2021/01/01 06:12:03;;;;;;;18.52;8.15;;;7.30;83.60;;;;;;5013841;28;20036;-51
2021/01/01 06:14:33;;;;;;;16.17;7.68;;;7.20;83.50;;;;;;5013365;28;20036;-52
2021/01/01 06:17:08;;;;;;;16.08;7.25;;;7.30;83.50;;;;;;5014000;28;20028;-52
2021/01/01 06:19:44;;;;;;;13.63;7.43;;;7.30;83.50;;;;;;5013446;28;20482;-52
2021/01/01 06:22:17;;;;;;;15.63;7.57;;;7.30;83.50;;;;;;5011738;28;20026;-52
2021/01/01 06:25:03;;;;;;;12.30;6.55;;;7.30;83.50;;;;;;4999292;28;20030;-51
2021/01/01 06:27:30;;;;;;;12.02;6.13;;;7.30;83.50;;;;;;5013888;28;20091;-52
2021/01/01 06:30:09;;;;;;;12.18;6.38;;;7.30;83.60;;;;;;5013649;28;20512;-52
2021/01/01 06:32:35;;;;;;;13.80;6.50;;;7.30;83.60;;;;;;5013862;28;20383;-51
2021/01/01 06:35:20;;;;;;;15.82;7.68;;;7.30;83.60;;;;;;5005840;28;20038;-51
2021/01/01 06:37:47;;;;;;;17.90;7.68;;;7.30;83.50;;;;;;4994133;28;20042;-51
2021/01/01 06:40:22;;;;;;;13.65;7.18;;;7.30;83.60;;;;;;4993818;28;20041;-52
2021/01/01 06:42:55;;;;;;;15.48;7.45;;;7.30;83.60;;;;;;5007688;28;20030;-52
2021/01/01 06:45:41;;;;;;;14.55;6.90;;;7.30;83.60;;;;;;5013704;28;20033;-51
2021/01/01 06:48:12;;;;;;;15.25;7.18;;;7.30;83.60;;;;;;5013908;28;20083;-51
2021/01/01 06:50:42;;;;;;;16.40;7.50;;;7.30;83.50;;;;;;5006328;28;20034;-51
2021/01/01 06:53:13;;;;;;;15.75;7.15;;;7.30;83.60;;;;;;5000325;28;20029;-51
2021/01/01 06:55:40;;;;;;;12.77;7.20;;;7.30;83.50;;;;;;5012568;28;20060;-51
2021/01/01 06:58:06;;;;;;;15.88;7.65;;;7.30;83.60;;;;;;5013147;28;20032;-52
2021/01/01 07:00:44;;;;;;;15.18;7.20;;;7.30;83.60;;;;;;5013487;28;20038;-52
2021/01/01 07:03:37;;;;;;;16.45;7.55;;;7.30;83.60;;;;;;5013012;28;20332;-52
2021/01/01 07:06:03;;;;;;;12.30;6.97;;;7.30;83.60;;;;;;5005733;28;20045;-52
2021/01/01 07:08:49;;;;;;;15.50;6.95;;;7.30;83.70;;;;;;5013302;28;20483;-52
2021/01/01 07:11:17;;;;;;;14.05;7.15;;;7.30;83.70;;;;;;5014099;28;20042;-52
2021/01/01 07:13:50;;;;;;;15.23;7.32;;;7.30;83.70;;;;;;5017277;28;20065;-52
2021/01/01 07:16:21;;;;;;;14.32;8.27;;;7.30;83.70;;;;;;5016341;28;20510;-51
2021/01/01 07:18:47;;;;;;;15.75;7.75;;;7.30;83.70;;;;;;5010206;28;20050;-52
2021/01/01 07:21:15;;;;;;;15.48;6.95;;;7.30;83.70;;;;;;4997261;28;20022;-51
2021/01/01 07:23:42;;;;;;;16.95;7.35;;;7.30;83.70;;;;;;4997484;28;20106;-51
2021/01/01 07:26:08;;;;;;;15.88;7.55;;;7.30;83.80;;;;;;5011899;28;20051;-51
2021/01/01 07:28:34;;;;;;;13.55;7.13;;;7.30;83.80;;;;;;5016996;28;20459;-51
2021/01/01 07:31:00;;;;;;;13.27;6.80;;;7.30;83.80;;;;;;5016622;28;20057;-51
2021/01/01 07:33:28;;;;;;;11.95;6.30;;;7.30;83.80;;;;;;5016746;28;20030;-52
2021/01/01 07:35:56;;;;;;;15.60;6.78;;;7.30;83.80;;;;;;5003812;28;20050;-51
2021/01/01 07:38:23;;;;;;;11.93;6.10;;;7.30;83.80;;;;;;4997197;28;20030;-52
2021/01/01 07:40:49;;;;;;;16.30;7.10;;;7.30;83.90;;;;;;4997199;28;20041;-52
2021/01/01 07:43:15;;;;;;;13.07;7.35;;;7.30;83.80;;;;;;5014631;28;20033;-51
2021/01/01 07:45:41;;;;;;;15.52;6.65;;;7.30;83.80;;;;;;5015912;28;20083;-52
2021/01/01 07:48:07;;;;;;;13.40;6.85;;;7.40;83.90;;;;;;5016950;28;20026;-52
2021/01/01 07:50:35;;;;;;;15.77;7.00;;;7.30;83.80;;;;;;5016161;28;20459;-51
2021/01/01 07:53:02;;;;;;;14.60;7.32;;;7.30;83.90;;;;;;5016392;28;20056;-51
2021/01/01 07:55:27;;;;;;;13.55;7.38;;;7.30;83.90;;;;;;5015594;28;20040;-51
2021/01/01 07:57:59;;;;;;;14.57;7.32;;;7.30;83.90;;;;;;5019502;28;20573;-51
2021/01/01 08:00:29;;;;;;;17.10;8.13;;;7.40;83.90;;;;;;5004892;28;20041;-52
2021/01/01 08:02:54;;;;;;;13.90;6.93;;;7.30;83.90;;;;;;5009152;28;20411;-51
2021/01/01 08:05:20;;;;;;;15.80;7.60;;;7.40;84.00;;;;;;5013720;28;20274;-51
2021/01/01 08:07:46;;;;;;;14.38;7.38;;;7.40;84.00;;;;;;5007354;28;20467;-51
2021/01/01 08:10:12;;;;;;;14.05;6.65;;;7.40;84.00;;;;;;5020190;28;20037;-52
2021/01/01 08:12:38;;;;;;;14.68;6.80;;;7.30;83.90;;;;;;5014810;28;20038;-51
2021/01/01 08:15:04;;;;;;;12.18;7.25;;;7.40;83.90;;;;;;5015538;28;20026;-51
2021/01/01 08:17:30;;;;;;;16.10;7.03;;;7.40;84.00;;;;;;5014428;28;20049;-52
2021/01/01 08:19:59;;;;;;;18.23;7.28;;;7.40;84.00;;;;;;5015764;28;20070;-51
2021/01/01 08:22:30;;;;;;;23.02;8.23;;;7.40;83.90;;;;;;5014962;28;20507;-52
2021/01/01 08:24:57;;;;;;;18.27;7.47;;;7.40;84.70;;;;;;5015146;28;20026;-51
2021/01/01 08:27:25;;;;;;;14.05;6.97;;;7.40;84.00;;;;;;5015627;28;20124;-51
2021/01/01 08:29:54;;;;;;;18.00;6.88;;;7.40;84.00;;;;;;5015844;28;20021;-51
2021/01/01 08:32:20;;;;;;;18.27;7.97;;;7.40;84.10;;;;;;5015594;28;20386;-52
2021/01/01 08:34:49;;;;;;;23.42;8.38;;;7.40;84.00;;;;;;5013371;28;20037;-51
2021/01/01 08:37:23;;;;;;;17.92;8.32;;;7.40;84.00;;;;;;5013054;28;20041;-51
2021/01/01 08:40:00;;;;;;;16.17;8.07;;;7.40;84.10;;;;;;5014576;28;20034;-52
2021/01/01 08:42:33;;;;;;;22.58;8.13;;;7.40;84.10;;;;;;5004249;28;20065;-52
2021/01/01 08:44:59;;;;;;;17.98;8.57;;;7.40;84.00;;;;;;4998377;28;20057;-52
2021/01/01 08:47:42;;;;;;;18.40;8.80;;;7.40;84.00;;;;;;5015479;28;20032;-51
2021/01/01 08:50:28;;;;;;;14.88;7.88;;;7.40;84.00;;;;;;5013957;28;20025;-51
2021/01/01 08:53:03;;;;;;;18.95;8.57;;;7.50;84.10;;;;;;5014776;28;20507;-52
2021/01/01 08:55:29;;;;;;;16.27;7.53;;;7.50;84.10;;;;;;5003295;28;20085;-51
2021/01/01 08:58:15;;;;;;;17.48;8.32;;;7.50;84.10;;;;;;4995765;28;20030;-51
2021/01/01 09:00:43;;;;;;;17.25;8.80;;;7.50;84.10;;;;;;5006210;28;20107;-51
2021/01/01 09:03:09;;;;;;;18.02;7.95;;;7.50;84.10;;;;;;5014683;28;20026;-51
2021/01/01 09:05:36;;;;;;;15.70;7.63;;;7.50;84.10;;;;;;5006548;28;20034;-52
2021/01/01 09:08:12;;;;;;;10.70;6.15;;;7.50;84.10;;;;;;5013932;28;20026;-51
2021/01/01 09:10:45;;;;;;;15.48;7.20;;;7.50;84.10;;;;;;5015003;28;20036;-51
2021/01/01 09:13:17;;;;;;;22.52;8.63;;;7.50;84.80;;;;;;5014412;28;20025;-52
2021/01/01 09:15:44;;;;;;;25.45;9.30;;;7.50;84.00;;;;;;5014352;28;20034;-51
2021/01/01 09:18:10;;;;;;;17.88;9.23;;;7.50;84.10;;;;;;5014643;28;20101;-51
2021/01/01 09:20:40;;;;;;;16.50;8.57;;;7.60;84.00;;;;;;5006156;28;20089;-51
2021/01/01 09:23:06;;;;;;;18.27;8.45;;;7.60;84.00;;;;;;4997312;28;20039;-52
2021/01/01 09:25:32;;;;;;;19.05;9.23;;;7.60;84.70;;;;;;5001441;28;20030;-52
2021/01/01 09:27:59;;;;;;;18.52;8.80;;;7.60;83.90;;;;;;5003325;28;20026;-51
2021/01/01 09:30:30;;;;;;;27.23;9.88;;;7.60;83.90;;;;;;5006029;28;20101;-52
2021/01/01 09:32:56;;;;;;;;;;;7.60;83.90;;;;;;5001470;28;20037;-52
2021/01/01 09:35:23;;;;;;;16.95;8.13;;;7.60;83.90;;;;;;5006417;28;19909;-52
2021/01/01 09:37:53;;;;;;;18.38;8.52;;;7.60;83.90;;;;;;5004278;28;20096;-51
2021/01/01 09:40:25;;;;;;;16.52;8.65;;;7.60;83.90;;;;;;4995243;28;20030;-52
2021/01/01 09:42:51;;;;;;;18.45;8.50;;;7.70;84.00;;;;;;5015888;28;20041;-52
2021/01/01 09:45:17;;;;;;;16.23;8.82;;;7.70;84.00;;;;;;5000480;28;20505;-51
2021/01/01 09:47:43;;;;;;;16.10;8.27;;;7.70;84.00;;;;;;5003142;28;20022;-52
2021/01/01 09:50:09;;;;;;;22.10;8.80;;;7.70;84.00;;;;;;5002658;28;20065;-51
2021/01/01 09:52:36;;;;;;;17.45;8.85;;;7.70;84.00;;;;;;5003360;28;20022;-52
2021/01/01 09:55:03;;;;;;;21.52;9.80;;;7.70;84.00;;;;;;5003482;28;20026;-51
2021/01/01 09:57:28;;;;;;;17.25;8.23;;;7.70;83.90;;;;;;5002736;28;20077;-52
2021/01/01 09:59:55;;;;;;;16.58;6.68;;;7.70;84.00;;;;;;5004957;28;20045;-51
2021/01/01 10:02:20;;;;;;;12.35;6.47;;;7.70;84.00;;;;;;4998733;28;20448;-52
2021/01/01 10:04:46;;;;;;;13.00;6.68;;;7.70;83.90;;;;;;5003514;28;20048;-51
2021/01/01 10:07:12;;;;;;;23.20;7.93;;;7.70;83.90;;;;;;5010593;28;20027;-52
2021/01/01 10:09:37;;;;;;;21.27;8.43;;;7.70;84.00;;;;;;5009108;28;20042;-51
2021/01/01 10:12:05;;;;;;;18.33;8.45;;;7.70;84.00;;;;;;5001037;28;20058;-52
2021/01/01 10:14:32;;;;;;;21.35;8.60;;;7.70;84.00;;;;;;5009484;28;20018;-51
2021/01/01 10:16:58;;;;;;;22.30;9.25;;;7.70;84.00;;;;;;5012008;28;20018;-51
2021/01/01 10:19:24;;;;;;;25.45;10.15;;;7.70;84.00;;;;;;5012286;28;20395;-52
2021/01/01 10:21:50;;;;;;;20.75;8.25;;;7.80;84.10;;;;;;5013040;28;20034;-51
2021/01/01 10:24:15;;;;;;;29.70;9.70;;;7.80;84.10;;;;;;5013597;28;20026;-51
2021/01/01 10:26:47;;;;;;;20.15;8.60;;;7.80;84.10;;;;;;5013607;28;20022;-51
2021/01/01 10:29:13;;;;;;;21.35;8.35;;;7.80;84.10;;;;;;5013256;28;20033;-52
2021/01/01 10:31:39;;;;;;;22.13;9.20;;;7.80;84.10;;;;;;4994727;28;20034;-52
2021/01/01 10:34:04;;;;;;;17.73;7.75;;;7.80;84.10;;;;;;4996095;28;20026;-52
2021/01/01 10:36:30;;;;;;;18.73;7.60;;;7.80;84.10;;;;;;5009797;28;20421;-51
2021/01/01 10:38:56;;;;;;;15.73;6.93;;;7.80;84.10;;;;;;5012493;28;20042;-51
2021/01/01 10:41:22;;;;;;;16.10;6.85;;;7.80;84.10;;;;;;5005674;28;20044;-52
2021/01/01 10:43:47;;;;;;;23.38;8.60;;;7.80;84.10;;;;;;5013035;28;20022;-51
2021/01/01 10:46:16;;;;;;;19.02;8.45;;;7.80;84.10;;;;;;5011696;28;20040;-52
2021/01/01 10:48:42;;;;;;;22.73;8.75;;;7.80;84.10;;;;;;5013463;28;20121;-52
2021/01/01 10:51:07;;;;;;;19.27;7.30;;;7.80;84.10;;;;;;5012227;28;20113;-51
2021/01/01 10:53:33;;;;;;;25.27;7.85;;;7.80;84.20;;;;;;5012650;28;20037;-51
2021/01/01 10:55:59;;;;;;;14.82;7.05;;;7.80;84.20;;;;;;4996212;28;20037;-51
2021/01/01 10:58:25;;;;;;;20.15;7.55;;;7.80;84.20;;;;;;5002152;28;20037;-52
2021/01/01 11:00:54;;;;;;;18.15;6.53;;;7.90;84.20;;;;;;5011792;28;20080;-51
2021/01/01 11:03:21;;;;;;;20.70;8.07;;;7.90;84.20;;;;;;5012741;28;20026;-51
2021/01/01 11:05:47;;;;;;;16.80;6.57;;;7.80;84.10;;;;;;5008000;28;20349;-51
2021/01/01 11:08:12;;;;;;;15.35;6.95;;;7.80;84.10;;;;;;4993620;28;20027;-51
2021/01/01 11:10:38;;;;;;;19.80;6.40;;;7.90;84.20;;;;;;5003826;28;20026;-51
2021/01/01 11:13:05;;;;;;;10.15;5.07;;;7.80;84.20;;;;;;5010852;28;20514;-52
2021/01/01 12:27:27;;;;;;;8.73;3.75;;;8.00;84.60;;;;;;4995490;28;20034;-52
2021/01/01 12:29:52;;;;;;;;;;;8.00;84.60;;;;;;4996911;28;20034;-52
2021/01/01 12:32:20;;;;;;;5.78;2.88;;;8.00;84.60;;;;;;5010768;28;19909;-52
2021/01/01 12:34:47;;;;;;;5.32;3.25;;;8.00;84.60;;;;;;5011321;28;20029;-52
2021/01/01 12:37:13;;;;;;;6.47;3.83;;;8.00;84.70;;;;;;5010569;28;20034;-52
2021/01/01 12:39:38;;;;;;;6.50;3.40;;;8.00;84.70;;;;;;5008753;28;20180;-52
2021/01/01 12:42:04;;;;;;;8.93;3.25;;;8.00;84.80;;;;;;4991793;28;20511;-51
2021/01/01 12:44:31;;;;;;;8.32;3.08;;;8.00;84.80;;;;;;4990614;28;21962;-51
2021/01/01 12:46:59;;;;;;;7.85;2.75;;;8.00;84.80;;;;;;5006568;28;20044;-52
2021/01/01 12:49:25;;;;;;;6.40;3.15;;;7.90;84.80;;;;;;5007870;28;20120;-52
2021/01/01 12:51:50;;;;;;;7.20;3.25;;;7.90;84.70;;;;;;4989779;28;20030;-51
2021/01/01 12:54:16;;;;;;;5.30;3.15;;;8.00;84.90;;;;;;5007135;28;20044;-52
2021/01/01 12:56:42;;;;;;;6.50;3.00;;;7.90;84.90;;;;;;5022209;28;20466;-52
2021/01/01 12:59:08;;;;;;;6.93;3.10;;;7.90;84.80;;;;;;5015102;28;20129;-52
2021/01/01 13:01:34;;;;;;;7.20;3.40;;;7.90;84.80;;;;;;5014260;28;20096;-51
2021/01/01 13:04:00;;;;;;;5.72;3.03;;;7.90;84.90;;;;;;5014593;28;20528;-52
2021/01/01 13:06:26;;;;;;;7.18;3.45;;;7.90;84.90;;;;;;5009043;28;20096;-52
2021/01/01 13:08:58;;;;;;;8.85;3.35;;;7.90;84.90;;;;;;5009920;28;20036;-52
2021/01/01 13:11:27;;;;;;;6.95;2.97;;;7.90;84.90;;;;;;5012694;28;20026;-51
2021/01/01 13:13:52;;;;;;;6.25;2.95;;;7.90;85.00;;;;;;5015107;28;20419;-52
2021/01/01 13:16:26;;;;;;;9.20;3.05;;;7.90;85.10;;;;;;5013243;28;20498;-51
2021/01/01 13:18:52;;;;;;;5.72;2.97;;;7.90;85.10;;;;;;5010957;28;20416;-52
2021/01/01 13:21:28;;;;;;;7.68;3.55;;;7.90;85.10;;;;;;4994901;28;20034;-52
2021/01/01 13:23:54;;;;;;;4.88;2.75;;;7.90;85.10;;;;;;5011912;28;20084;-52
2021/01/01 13:26:24;;;;;;;6.22;3.53;;;7.90;85.10;;;;;;5014371;28;20030;-52
2021/01/01 13:28:50;;;;;;;6.30;3.03;;;7.90;85.10;;;;;;4997043;28;20359;-51
2021/01/01 13:31:16;;;;;;;8.02;3.50;;;7.90;85.20;;;;;;4994058;28;20081;-52
2021/01/01 13:33:42;;;;;;;4.72;3.05;;;7.90;85.20;;;;;;5012255;28;20022;-52
2021/01/01 13:36:20;;;;;;;7.13;3.28;;;7.90;85.20;;;;;;4998179;28;20058;-51
2021/01/01 13:38:46;;;;;;;10.30;2.75;;;7.90;85.20;;;;;;4994795;28;20026;-51
2021/01/01 13:41:13;;;;;;;4.40;2.30;;;7.90;86.00;;;;;;5008182;28;20360;-51
2021/01/01 13:43:43;;;;;;;6.97;3.38;;;7.90;85.20;;;;;;5013483;28;20109;-51
2021/01/01 13:46:09;;;;;;;3.90;2.35;;;7.80;85.20;;;;;;5007074;28;20114;-51
2021/01/01 13:48:36;;;;;;;4.25;2.47;;;7.90;85.30;;;;;;4998510;28;20026;-52
2021/01/01 13:51:02;;;;;;;5.07;2.58;;;7.90;85.40;;;;;;4994340;28;20040;-52
2021/01/01 13:53:28;;;;;;;7.13;3.08;;;7.80;85.30;;;;;;5003497;28;20057;-51
2021/01/01 13:55:54;;;;;;;4.85;2.45;;;7.80;85.30;;;;;;5012244;28;20062;-52
2021/01/01 13:58:21;;;;;;;7.50;2.72;;;7.90;85.40;;;;;;5014196;28;20455;-51
2021/01/01 14:00:49;;;;;;;4.35;2.72;;;7.80;85.40;;;;;;5013211;28;20108;-51
2021/01/01 14:03:15;;;;;;;6.00;3.00;;;7.80;85.40;;;;;;5011103;28;20481;-51
2021/01/01 14:05:40;;;;;;;3.33;2.42;;;7.80;85.50;;;;;;5009690;28;20030;-51